Time;durP1;ratioP1;P1;durP2;ratioP2;P2;SDS_P1;SDS_P2;PMS_P1;PMS_P2;Temp;Humidity;BMP_temperature;BMP_pressure;BME280_temperature;BME280_humidity;BME280_pressure;Samples;Min_cycle;Max_cycle;Signal;HPM_P1;HPM_P2
2023/06/30 00:00:28;;;;;;;0.40;0.30;;;;;;;19.52;99.03;95399.13;5073117;28;20445;-59
2023/06/30 00:02:59;;;;;;;0.40;0.30;;;;;;;19.37;100.00;95396.16;5072841;28;20437;-59
2023/06/30 00:05:29;;;;;;;0.43;0.27;;;;;;;19.37;100.00;95396.16;5072336;28;20433;-60
2023/06/30 00:07:58;;;;;;;0.50;0.33;;;;;;;19.39;99.44;95407.38;5072664;28;20495;-60
2023/06/30 00:10:27;;;;;;;0.40;0.30;;;;;;;18.89;100.00;95397.25;5073481;28;20445;-60
2023/06/30 00:12:55;;;;;;;0.40;0.30;;;;;;;19.08;100.00;95404.13;5071492;28;20448;-60
2023/06/30 00:15:24;;;;;;;0.40;0.20;;;;;;;19.13;100.00;95407.44;5071890;28;21070;-60
2023/06/30 00:17:52;;;;;;;0.40;0.30;;;;;;;19.20;100.00;95406.97;5071324;28;20561;-61
2023/06/30 00:20:21;;;;;;;0.50;0.30;;;;;;;19.26;99.47;95398.38;5072085;28;20515;-60
2023/06/30 00:22:51;;;;;;;0.40;0.20;;;;;;;19.27;98.50;95410.72;5072450;28;20437;-60
2023/06/30 00:25:20;;;;;;;0.40;0.30;;;;;;;19.16;99.43;95417.53;5072782;28;20436;-60
2023/06/30 00:27:48;;;;;;;0.40;0.30;;;;;;;18.88;100.00;95416.34;5072304;28;21000;-60
2023/06/30 00:30:17;;;;;;;1.23;0.30;;;;;;;19.03;100.00;95403.19;5065317;28;20437;-60
2023/06/30 00:32:45;;;;;;;0.50;0.33;;;;;;;19.12;100.00;95413.13;5071453;28;21000;-60
2023/06/30 00:35:13;;;;;;;0.50;0.30;;;;;;;19.00;100.00;95417.25;5071597;28;20438;-60
2023/06/30 00:37:42;;;;;;;1.00;0.47;;;;;;;19.02;100.00;95417.72;5071111;28;21037;-60
2023/06/30 00:40:14;;;;;;;0.50;0.30;;;;;;;18.95;100.00;95417.44;5072449;28;20438;-60
2023/06/30 00:42:42;;;;;;;1.03;1.03;;;;;;;19.00;100.00;95411.88;5072553;28;20460;-60
2023/06/30 00:45:11;;;;;;;0.40;0.30;;;;;;;18.97;100.00;95420.59;5071619;28;20445;-59
2023/06/30 00:47:40;;;;;;;0.50;0.33;;;;;;;18.84;100.00;95418.91;5072525;28;20495;-60
2023/06/30 00:50:09;;;;;;;0.50;0.40;;;;;;;18.86;100.00;95414.00;5071762;28;20942;-60
2023/06/30 00:52:38;;;;;;;0.50;0.30;;;;;;;18.86;100.00;95424.72;5071463;28;20488;-60
2023/06/30 00:55:09;;;;;;;0.40;0.20;;;;;;;18.80;100.00;95423.31;5071815;28;20463;-60
2023/06/30 00:57:38;;;;;;;0.40;0.30;;;;;;;18.67;100.00;95418.13;5071770;28;20438;-60
2023/06/30 01:00:11;;;;;;;0.53;0.37;;;;;;;18.68;100.00;95422.38;5070466;28;20437;-60
2023/06/30 01:02:50;;;;;;;0.40;0.30;;;;;;;18.71;100.00;95427.91;5071238;28;20528;-60
2023/06/30 01:05:26;;;;;;;0.40;0.20;;;;;;;18.67;100.00;95428.88;5071427;28;20441;-60
2023/06/30 01:08:01;;;;;;;0.40;0.30;;;;;;;18.53;100.00;95433.59;5071368;28;20559;-61
2023/06/30 01:10:32;;;;;;;2.10;0.40;;;;;;;18.68;100.00;95433.91;5071614;28;20440;-60
2023/06/30 01:13:03;;;;;;;0.40;0.30;;;;;;;18.61;100.00;95425.53;5070345;28;20879;-59
2023/06/30 01:15:32;;;;;;;0.60;0.40;;;;;;;18.72;100.00;95429.47;5061279;28;20492;-60
2023/06/30 01:18:02;;;;;;;0.50;0.40;;;;;;;18.70;100.00;95423.63;5069868;28;20434;-60
2023/06/30 01:20:33;;;;;;;0.90;0.30;;;;;;;18.31;100.00;95424.56;5071858;28;20441;-60
2023/06/30 01:23:08;;;;;;;0.60;0.40;;;;;;;18.46;100.00;95423.31;5071466;28;20433;-60
2023/06/30 01:25:36;;;;;;;0.40;0.20;;;;;;;18.35;100.00;95414.78;5070813;28;20562;-59
2023/06/30 01:28:07;;;;;;;0.40;0.30;;;;;;;18.52;100.00;95415.91;5071869;28;20433;-60
2023/06/30 01:30:36;;;;;;;0.50;0.30;;;;;;;18.55;100.00;95418.75;5070046;28;20449;-61
2023/06/30 01:33:05;;;;;;;0.40;0.20;;;;;;;18.40;100.00;95413.81;5070632;28;20580;-61
2023/06/30 01:35:34;;;;;;;0.60;0.40;;;;;;;18.47;100.00;95414.16;5070103;28;20972;-60
2023/06/30 01:38:02;;;;;;;0.47;0.40;;;;;;;18.48;100.00;95414.97;5070716;28;21129;-61
2023/06/30 01:40:31;;;;;;;0.40;0.30;;;;;;;18.34;100.00;95420.47;5070660;28;20861;-60
2023/06/30 01:42:59;;;;;;;0.40;0.30;;;;;;;18.02;100.00;95418.19;5071667;28;20445;-60
2023/06/30 01:45:30;;;;;;;0.50;0.30;;;;;;;17.86;100.00;95384.91;5070486;28;20464;-60
2023/06/30 01:47:59;;;;;;;0.93;0.60;;;;;;;18.15;100.00;95409.22;5071214;28;20938;-61
2023/06/30 01:50:29;;;;;;;0.50;0.50;;;;;;;18.03;100.00;95407.19;5070570;28;20449;-61
2023/06/30 01:52:58;;;;;;;0.47;0.30;;;;;;;18.18;100.00;95405.94;5069748;28;20500;-61
2023/06/30 01:55:27;;;;;;;0.40;0.30;;;;;;;18.24;100.00;95408.13;5071116;28;20433;-61
2023/06/30 01:57:55;;;;;;;0.40;0.20;;;;;;;18.28;100.00;95409.09;5071486;28;20491;-61
2023/06/30 02:00:23;;;;;;;0.50;0.40;;;;;;;18.33;100.00;95405.47;5070991;28;20492;-61
2023/06/30 02:02:53;;;;;;;0.40;0.30;;;;;;;18.31;100.00;95405.00;5070621;28;20495;-61
2023/06/30 02:05:22;;;;;;;0.50;0.47;;;;;;;18.24;100.00;95402.75;5070374;28;20503;-61
2023/06/30 02:07:50;;;;;;;0.60;0.30;;;;;;;18.04;100.00;95375.75;5069826;28;20434;-61
2023/06/30 02:10:18;;;;;;;0.40;0.30;;;;;;;18.09;100.00;95391.72;5070591;28;20540;-61
2023/06/30 02:12:47;;;;;;;0.40;0.20;;;;;;;18.20;100.00;95399.13;5070726;28;20469;-60
2023/06/30 02:15:15;;;;;;;0.40;0.20;;;;;;;18.17;100.00;95391.72;5069679;28;20481;-61
2023/06/30 02:17:43;;;;;;;0.53;0.30;;;;;;;17.99;100.00;95387.44;5057336;28;20490;-61
2023/06/30 02:20:14;;;;;;;0.40;0.30;;;;;;;18.13;100.00;95406.88;5071353;28;20514;-61
2023/06/30 02:22:43;;;;;;;0.40;0.20;;;;;;;18.14;100.00;95418.41;5070112;28;20438;-61
2023/06/30 02:25:11;;;;;;;0.40;0.30;;;;;;;18.11;100.00;95417.13;5070392;28;20495;-62
2023/06/30 02:27:39;;;;;;;0.40;0.20;;;;;;;17.93;100.00;95417.41;5069740;28;20845;-61
2023/06/30 02:30:09;;;;;;;0.40;0.30;;;;;;;17.81;100.00;95412.63;5070830;28;20793;-62
2023/06/30 02:32:38;;;;;;;0.50;0.30;;;;;;;17.67;100.00;95418.13;5069937;28;20476;-61
2023/06/30 02:35:08;;;;;;;0.50;0.37;;;;;;;17.82;100.00;95411.53;5070420;28;20449;-61
2023/06/30 02:37:38;;;;;;;0.53;0.53;;;;;;;17.89;100.00;95417.22;5070075;28;20632;-61
2023/06/30 02:40:08;;;;;;;0.50;0.40;;;;;;;17.74;100.00;95420.34;5069948;28;20506;-62
2023/06/30 02:42:37;;;;;;;0.40;0.20;;;;;;;17.87;100.00;95419.44;5069426;28;20448;-62
2023/06/30 02:45:07;;;;;;;0.50;0.40;;;;;;;17.78;100.00;95395.28;5070179;28;21008;-61
2023/06/30 02:47:35;;;;;;;0.40;0.30;;;;;;;17.57;100.00;95370.19;5069471;28;20449;-61
2023/06/30 02:50:03;;;;;;;0.50;0.30;;;;;;;17.94;100.00;95417.09;5069383;28;20495;-61
2023/06/30 02:52:32;;;;;;;0.47;0.30;;;;;;;17.99;100.00;95424.19;5057919;28;20505;-61
2023/06/30 02:55:02;;;;;;;0.67;0.67;;;;;;;17.23;100.00;95332.50;5071328;28;20491;-61
2023/06/30 02:57:30;;;;;;;0.40;0.30;;;;;;;17.74;100.00;95437.22;5069564;28;20442;-61
2023/06/30 02:59:59;;;;;;;0.40;0.30;;;;;;;17.89;100.00;95432.53;5072389;28;20445;-61
2023/06/30 03:02:27;;;;;;;0.40;0.23;;;;;;;17.98;100.00;95433.34;5073753;28;20441;-62
2023/06/30 03:04:56;;;;;;;0.40;0.27;;;;;;;17.82;100.00;95416.91;5073571;28;20981;-62
2023/06/30 03:07:25;;;;;;;0.40;0.30;;;;;;;17.80;100.00;95418.31;5072583;28;20448;-61
2023/06/30 03:09:53;;;;;;;0.40;0.20;;;;;;;17.86;100.00;95430.50;5073264;28;20445;-62
2023/06/30 03:12:23;;;;;;;0.50;0.30;;;;;;;17.64;100.00;95418.75;5072860;28;20977;-61
2023/06/30 03:14:52;;;;;;;0.63;0.63;;;;;;;17.41;100.00;95427.13;5073686;28;20500;-61
2023/06/30 03:17:22;;;;;;;0.60;0.40;;;;;;;17.05;100.00;95435.34;5074204;28;20544;-61
2023/06/30 03:19:50;;;;;;;0.50;0.50;;;;;;;17.07;100.00;95417.88;5073816;28;20442;-61
2023/06/30 03:22:18;;;;;;;0.40;0.30;;;;;;;17.35;100.00;95423.81;5073156;28;20450;-63
2023/06/30 03:24:47;;;;;;;0.40;0.30;;;;;;;17.68;100.00;95424.28;5073455;28;20499;-62
2023/06/30 03:27:15;;;;;;;0.50;0.30;;;;;;;17.71;100.00;95421.75;5073694;28;20441;-61
2023/06/30 03:29:45;;;;;;;0.40;0.20;;;;;;;17.71;100.00;95431.69;5074148;28;20472;-62
2023/06/30 03:32:13;;;;;;;0.40;0.30;;;;;;;17.43;100.00;95431.09;5072978;28;20508;-62
2023/06/30 03:34:41;;;;;;;0.60;0.60;;;;;;;17.60;100.00;95428.53;5073456;28;20999;-62
2023/06/30 03:37:10;;;;;;;0.50;0.40;;;;;;;17.79;100.00;95438.97;5073272;28;20507;-62
2023/06/30 03:39:38;;;;;;;0.60;0.30;;;;;;;17.78;100.00;95434.72;5073455;28;20446;-62
2023/06/30 03:42:07;;;;;;;0.40;0.30;;;;;;;17.88;100.00;95430.97;5072541;28;20445;-62
2023/06/30 03:44:35;;;;;;;0.40;0.27;;;;;;;17.84;100.00;95432.66;5074191;28;20441;-62
2023/06/30 03:47:06;;;;;;;0.50;0.30;;;;;;;17.63;100.00;95424.44;5073593;28;20502;-63
2023/06/30 03:49:34;;;;;;;2.00;0.40;;;;;;;17.68;100.00;95438.47;5073740;28;20926;-63
2023/06/30 03:52:02;;;;;;;0.40;0.30;;;;;;;17.72;100.00;95444.81;5073421;28;20463;-62
2023/06/30 03:54:31;;;;;;;0.40;0.30;;;;;;;17.78;100.00;95438.19;5069019;28;20528;-62
2023/06/30 03:56:59;;;;;;;0.50;0.30;;;;;;;17.78;100.00;95438.19;5071404;28;21003;-62
2023/06/30 03:59:28;;;;;;;0.40;0.30;;;;;;;17.73;98.45;95445.59;5073456;28;20863;-62
2023/06/30 04:01:56;;;;;;;0.77;0.67;;;;;;;17.41;100.00;95445.91;5073746;28;20438;-63
2023/06/30 04:04:26;;;;;;;0.40;0.30;;;;;;;17.32;100.00;95445.06;5073666;28;20450;-62
2023/06/30 04:06:55;;;;;;;0.50;0.40;;;;;;;17.62;100.00;95439.72;5072783;28;20442;-63
2023/06/30 04:09:24;;;;;;;0.40;0.20;;;;;;;17.96;100.00;95444.38;5073033;28;20438;-63
2023/06/30 04:11:52;;;;;;;0.50;0.30;;;;;;;17.56;100.00;95446.31;5046498;28;20437;-62
2023/06/30 04:14:21;;;;;;;0.43;0.30;;;;;;;17.33;100.00;95442.06;5072073;28;20493;-62
2023/06/30 04:16:49;;;;;;;0.50;0.40;;;;;;;17.87;100.00;95445.47;5073281;28;20480;-62
2023/06/30 04:19:17;;;;;;;2.37;0.60;;;;;;;17.65;100.00;95443.66;5073133;28;20438;-62
2023/06/30 04:21:49;;;;;;;0.60;0.33;;;;;;;17.54;100.00;95442.34;5072925;28;20465;-62
2023/06/30 04:24:19;;;;;;;0.57;0.30;;;;;;;17.56;100.00;95446.31;5073048;28;21018;-62
2023/06/30 04:26:47;;;;;;;0.40;0.20;;;;;;;17.76;100.00;95443.06;5072705;28;20949;-62
2023/06/30 04:29:15;;;;;;;0.50;0.30;;;;;;;17.93;100.00;95438.88;5072827;28;20464;-62
2023/06/30 04:31:44;;;;;;;0.70;0.30;;;;;;;17.45;100.00;95444.19;5073210;28;20516;-62
2023/06/30 04:34:12;;;;;;;0.97;0.30;;;;;;;17.27;100.00;95448.69;5072437;28;20477;-62
2023/06/30 04:36:41;;;;;;;0.50;0.40;;;;;;;17.60;100.00;95446.50;5072780;28;20433;-62
2023/06/30 04:39:10;;;;;;;0.70;0.60;;;;;;;17.79;100.00;95444.34;5072485;28;20501;-61
2023/06/30 04:41:39;;;;;;;0.90;0.73;;;;;;;17.05;100.00;95441.47;5073278;28;20524;-61
2023/06/30 04:44:08;;;;;;;1.23;1.13;;;;;;;16.70;100.00;95454.91;5072453;28;20469;-61
2023/06/30 04:46:36;;;;;;;0.77;0.77;;;;;;;16.76;100.00;95454.50;5072509;28;20437;-62
2023/06/30 04:49:04;;;;;;;1.00;0.97;;;;;;;16.79;100.00;95445.09;5072575;28;20434;-61
2023/06/30 04:51:33;;;;;;;0.70;0.70;;;;;;;16.95;100.00;95451.66;5072361;28;20434;-60
2023/06/30 04:54:01;;;;;;;0.50;0.30;;;;;;;17.31;100.00;95446.97;5046745;28;21001;-62
2023/06/30 04:56:31;;;;;;;0.67;0.67;;;;;;;17.63;100.00;95452.00;5071622;28;20484;-61
2023/06/30 04:58:59;;;;;;;0.40;0.20;;;;;;;17.77;100.00;95455.38;5072022;28;20441;-62
2023/06/30 05:01:28;;;;;;;0.60;0.30;;;;;;;18.27;100.00;95445.06;5072069;28;20437;-61
2023/06/30 05:03:57;;;;;;;0.50;0.40;;;;;;;18.63;96.27;95447.50;5071782;28;20442;-59
2023/06/30 05:06:25;;;;;;;1.27;0.30;;;;;;;18.95;92.95;95444.28;5071873;28;20520;-60
2023/06/30 05:08:53;;;;;;;0.40;0.20;;;;;;;18.99;91.56;95450.63;5072276;28;20877;-60
2023/06/30 05:11:22;;;;;;;0.50;0.30;;;;;;;18.79;90.08;95448.59;5071681;28;20921;-60
2023/06/30 05:13:51;;;;;;;0.50;0.30;;;;;;;18.84;88.36;95447.63;5071766;28;20497;-60
2023/06/30 05:16:20;;;;;;;0.70;0.70;;;;;;;18.86;89.11;95456.16;5072190;28;20519;-58
2023/06/30 05:18:49;;;;;;;0.57;0.30;;;;;;;18.82;91.43;95450.63;5071663;28;20444;-59
2023/06/30 05:21:18;;;;;;;0.50;0.43;;;;;;;18.82;90.64;95450.63;5071719;28;20956;-60
2023/06/30 05:23:46;;;;;;;0.40;0.30;;;;;;;19.45;87.84;95447.22;5071917;28;20811;-59
2023/06/30 05:26:14;;;;;;;0.73;0.73;;;;;;;19.37;85.12;95444.56;5071397;28;20472;-59
2023/06/30 05:28:42;;;;;;;0.40;0.33;;;;;;;18.70;85.46;95297.44;5071824;28;20836;-58
2023/06/30 05:31:28;;;;;;;0.50;0.40;;;;;;;19.40;84.88;95452.78;5071565;28;20450;-57
2023/06/30 05:33:57;;;;;;;0.40;0.30;;;;;;;19.89;82.63;95445.09;5071671;28;20491;-57
2023/06/30 05:36:26;;;;;;;0.40;0.30;;;;;;;19.70;85.88;95442.06;5071613;28;20477;-58
2023/06/30 05:38:54;;;;;;;0.50;0.30;;;;;;;19.97;84.53;95445.06;5070968;28;20449;-57
2023/06/30 05:41:22;;;;;;;0.50;0.30;;;;;;;20.62;79.81;95435.63;5071275;28;20536;-57
2023/06/30 05:43:51;;;;;;;0.40;0.20;;;;;;;20.82;78.68;95441.00;5071259;28;20453;-58
2023/06/30 05:46:19;;;;;;;0.40;0.30;;;;;;;20.21;81.65;95439.84;5071699;28;20441;-58
2023/06/30 05:48:49;;;;;;;2.53;0.50;;;;;;;20.01;82.08;95443.31;5071530;28;20441;-58
2023/06/30 05:51:17;;;;;;;0.50;0.50;;;;;;;19.83;84.39;95444.53;5071578;28;20465;-57
2023/06/30 05:53:46;;;;;;;0.50;0.40;;;;;;;20.66;82.50;95439.25;5071467;28;20480;-57
2023/06/30 05:56:14;;;;;;;0.50;0.40;;;;;;;20.38;80.93;95440.91;5071431;28;20499;-58
2023/06/30 05:58:42;;;;;;;1.03;1.03;;;;;;;20.73;81.55;95437.59;5071300;28;20828;-57
2023/06/30 06:01:11;;;;;;;0.40;0.30;;;;;;;20.87;83.04;95437.34;5071368;28;20445;-58
2023/06/30 06:03:39;;;;;;;0.60;0.50;;;;;;;20.84;79.31;95432.59;5071331;28;20468;-58
2023/06/30 06:06:09;;;;;;;0.70;0.50;;;;;;;21.45;78.64;95434.34;5071941;28;20441;-58
2023/06/30 06:08:40;;;;;;;0.90;0.50;;;;;;;20.74;83.78;95433.00;5069593;28;20465;-59
2023/06/30 06:11:08;;;;;;;0.60;0.50;;;;;;;21.00;82.74;95432.78;5065440;28;20441;-60
2023/06/30 06:13:38;;;;;;;0.50;0.30;;;;;;;21.81;79.71;95430.13;5071557;28;20489;-59
2023/06/30 06:16:08;;;;;;;1.13;0.80;;;;;;;21.56;80.58;95432.03;5071215;28;20567;-59
2023/06/30 06:18:36;;;;;;;0.70;0.70;;;;;;;21.42;77.21;95426.97;5071369;28;20495;-59
2023/06/30 06:21:05;;;;;;;1.13;1.13;;;;;;;21.76;75.89;95370.97;5071288;28;20498;-60
2023/06/30 06:23:35;;;;;;;0.70;0.70;;;;;;;22.02;77.44;95423.53;5070966;28;20945;-61
2023/06/30 06:26:03;;;;;;;3.33;0.50;;;;;;;21.78;78.34;95428.88;5071041;28;20445;-60
2023/06/30 06:28:32;;;;;;;0.50;0.37;;;;;;;22.40;76.01;95422.34;5071267;28;20477;-58
2023/06/30 06:31:00;;;;;;;0.50;0.30;;;;;;;22.64;72.04;95420.38;5070904;28;20917;-61
2023/06/30 06:33:30;;;;;;;1.13;1.13;;;;;;;22.80;71.21;95425.06;5071982;28;20445;-61
2023/06/30 06:35:58;;;;;;;0.60;0.60;;;;;;;23.10;70.49;95418.94;5074834;28;20473;-60
2023/06/30 06:38:27;;;;;;;0.53;0.40;;;;;;;23.50;69.98;95415.38;5074870;28;20932;-59
2023/06/30 06:40:56;;;;;;;0.90;0.50;;;;;;;23.32;72.73;95421.09;5074391;28;20798;-58
2023/06/30 06:43:26;;;;;;;0.67;0.30;;;;;;;23.74;69.85;95417.91;5074887;28;20449;-59
2023/06/30 06:45:54;;;;;;;1.23;0.50;;;;;;;23.89;68.81;95411.69;5075013;28;20434;-59
2023/06/30 06:48:24;;;;;;;0.60;0.57;;;;;;;23.90;65.93;95416.78;5074370;28;20449;-60
2023/06/30 06:50:54;;;;;;;0.60;0.40;;;;;;;23.17;67.12;95412.97;5074817;28;20805;-59
2023/06/30 06:53:25;;;;;;;0.50;0.50;;;;;;;23.23;68.83;95412.34;5074321;28;20529;-60
2023/06/30 06:55:56;;;;;;;0.40;0.30;;;;;;;23.77;65.46;95418.00;5074484;28;20488;-60
2023/06/30 06:58:26;;;;;;;0.50;0.30;;;;;;;24.50;66.28;95409.22;5074391;28;20445;-61
2023/06/30 07:00:55;;;;;;;1.33;0.67;;;;;;;24.82;62.47;95405.28;5074874;28;20863;-62
2023/06/30 07:03:24;;;;;;;0.40;0.40;;;;;;;24.97;62.40;95409.81;5074568;28;20488;-61
2023/06/30 07:05:52;;;;;;;1.13;0.67;;;;;;;24.12;62.82;95407.25;5074368;28;20528;-61
2023/06/30 07:08:21;;;;;;;0.50;0.50;;;;;;;23.95;64.42;95394.06;5074128;28;20437;-61
2023/06/30 07:10:50;;;;;;;2.13;1.23;;;;;;;23.69;64.03;95407.34;5074272;28;20846;-60
2023/06/30 07:13:21;;;;;;;0.40;0.30;;;;;;;23.79;64.07;95406.81;5073733;28;20452;-60
2023/06/30 07:15:50;;;;;;;0.40;0.30;;;;;;;24.05;64.86;95341.28;5074337;28;20981;-61
2023/06/30 07:18:19;;;;;;;0.40;0.40;;;;;;;24.91;62.77;95402.34;5074430;28;20445;-60
2023/06/30 07:20:48;;;;;;;0.53;0.40;;;;;;;25.47;61.50;95397.22;5074293;28;20980;-60
2023/06/30 07:23:17;;;;;;;0.50;0.43;;;;;;;25.48;62.64;95352.63;5074508;28;20437;-62
2023/06/30 07:25:46;;;;;;;0.60;0.53;;;;;;;25.98;60.96;95398.44;5073706;28;20439;-61
2023/06/30 07:28:15;;;;;;;1.80;0.50;;;;;;;26.13;58.70;95394.81;5064872;28;20434;-62
2023/06/30 07:30:45;;;;;;;1.23;1.13;;;;;;;25.02;58.30;95393.25;5068940;28;20499;-63
2023/06/30 07:33:13;;;;;;;1.00;0.63;;;;;;;25.04;58.19;95391.00;5074206;28;20479;-62
2023/06/30 07:35:42;;;;;;;0.53;0.50;;;;;;;25.96;57.12;95389.84;5073543;28;20536;-63
2023/06/30 07:38:11;;;;;;;1.40;0.50;;;;;;;26.96;56.46;95395.53;5074058;28;20467;-62
2023/06/30 07:40:39;;;;;;;0.50;0.40;;;;;;;26.87;55.00;95387.66;5073558;28;20925;-64
2023/06/30 07:43:24;;;;;;;0.40;0.30;;;;;;;26.98;54.75;95394.00;5073922;28;20445;-64
2023/06/30 07:45:54;;;;;;;0.50;0.50;;;;;;;26.98;55.20;95390.50;5073368;28;20934;-64
2023/06/30 07:48:23;;;;;;;0.80;0.80;;;;;;;25.85;57.11;95386.22;5073359;28;21035;-63
2023/06/30 07:50:51;;;;;;;0.70;0.70;;;;;;;26.92;56.80;95390.03;5073291;28;20796;-63
2023/06/30 07:53:35;;;;;;;0.50;0.47;;;;;;;27.35;55.64;95388.56;5073333;28;20437;-63
2023/06/30 07:56:03;;;;;;;0.43;0.40;;;;;;;27.73;53.39;95385.44;5073604;28;20507;-64
2023/06/30 07:58:32;;;;;;;0.60;0.40;;;;;;;27.95;51.35;95380.16;5073069;28;20434;-64
2023/06/30 08:01:02;;;;;;;0.40;0.30;;;;;;;28.60;50.03;95380.19;5073865;28;20484;-65
2023/06/30 08:03:31;;;;;;;0.30;0.30;;;;;;;28.52;51.07;95382.09;5073537;28;20443;-63
2023/06/30 08:05:59;;;;;;;0.90;0.67;;;;;;;27.48;49.61;95383.66;5073405;28;21004;-53
2023/06/30 08:08:30;;;;;;;1.63;0.40;;;;;;;27.75;50.95;95382.34;5072805;28;20512;-54
2023/06/30 08:10:59;;;;;;;0.40;0.30;;;;;;;27.94;51.81;95373.13;5073607;28;20587;-52
2023/06/30 08:13:27;;;;;;;0.40;0.30;;;;;;;28.44;52.45;95379.72;5073251;28;20438;-52
2023/06/30 08:15:56;;;;;;;0.40;0.40;;;;;;;28.97;50.68;95371.81;5072826;28;20484;-52
2023/06/30 08:18:27;;;;;;;0.80;0.80;;;;;;;29.52;48.36;95362.19;5072996;28;21204;-52
2023/06/30 08:21:02;;;;;;;1.07;0.90;;;;;;;27.93;49.43;95366.91;5072599;28;20445;-52
2023/06/30 08:23:30;;;;;;;0.90;0.90;;;;;;;27.88;52.68;95364.53;5073311;28;20438;-52
2023/06/30 08:25:58;;;;;;;0.70;0.40;;;;;;;28.42;50.94;95361.00;5072803;28;20441;-53
2023/06/30 08:28:27;;;;;;;0.73;0.73;;;;;;;28.95;49.40;95351.13;5073083;28;20445;-52
2023/06/30 08:30:55;;;;;;;0.83;0.60;;;;;;;28.68;49.76;95363.50;5071521;28;20473;-53
2023/06/30 08:33:29;;;;;;;0.60;0.60;;;;;;;29.65;46.65;95357.13;5072948;28;20446;-53
2023/06/30 08:36:01;;;;;;;0.60;0.60;;;;;;;29.55;49.64;95350.47;5072612;28;20465;-53
2023/06/30 08:38:30;;;;;;;1.13;0.47;;;;;;;29.86;48.28;95346.97;5073224;28;20548;-53
2023/06/30 08:40:59;;;;;;;0.40;0.30;;;;;;;29.46;50.92;95347.34;5072421;28;20960;-53
2023/06/30 08:43:29;;;;;;;0.63;0.60;;;;;;;28.66;50.30;95349.47;5072498;28;20646;-52
2023/06/30 08:46:01;;;;;;;1.30;0.40;;;;;;;28.99;50.21;95353.88;5072470;28;20465;-52
2023/06/30 08:48:32;;;;;;;0.40;0.40;;;;;;;29.43;49.45;95346.16;5071972;28;20491;-60
2023/06/30 08:51:01;;;;;;;0.67;0.67;;;;;;;29.23;51.55;95336.00;5071944;28;20442;-59
2023/06/30 08:53:31;;;;;;;0.70;0.30;;;;;;;29.44;50.04;95333.31;5072093;28;20434;-59
2023/06/30 08:56:00;;;;;;;0.73;0.73;;;;;;;28.55;49.82;95340.44;5071641;28;20552;-59
2023/06/30 08:58:29;;;;;;;0.57;0.57;;;;;;;29.65;49.94;95329.81;5072577;28;20490;-59
2023/06/30 09:00:58;;;;;;;0.50;0.50;;;;;;;29.92;48.54;95323.56;5072320;28;20506;-59
2023/06/30 09:03:27;;;;;;;0.50;0.40;;;;;;;30.72;47.10;95315.53;5072326;28;20817;-59
2023/06/30 09:06:00;;;;;;;0.93;0.60;;;;;;;30.40;46.07;95314.88;5071911;28;20469;-59
2023/06/30 09:08:34;;;;;;;0.63;0.60;;;;;;;29.38;48.78;95323.94;5071775;28;20441;-59
2023/06/30 09:11:07;;;;;;;0.60;0.30;;;;;;;29.36;47.70;95305.22;5071421;28;20464;-60
2023/06/30 09:13:39;;;;;;;0.40;0.40;;;;;;;30.81;46.98;95308.44;5071680;28;20461;-59
2023/06/30 09:16:12;;;;;;;2.23;0.80;;;;;;;30.83;48.12;95301.78;5071846;28;20514;-60
2023/06/30 09:18:47;;;;;;;0.43;0.43;;;;;;;30.96;46.24;95305.66;5061465;28;20453;-60
2023/06/30 09:21:16;;;;;;;0.50;0.50;;;;;;;30.67;46.50;95294.03;5069250;28;20442;-61
2023/06/30 09:23:46;;;;;;;0.40;0.40;;;;;;;31.23;46.46;95291.00;5071818;28;20498;-60
2023/06/30 09:26:17;;;;;;;3.07;0.50;;;;;;;30.35;49.25;95298.88;5071358;28;20441;-60
2023/06/30 09:28:46;;;;;;;0.70;0.40;;;;;;;30.69;47.72;95288.94;5072020;28;20456;-61
2023/06/30 09:31:15;;;;;;;0.67;0.67;;;;;;;30.20;48.32;95281.72;5071658;28;20812;-59
2023/06/30 09:33:47;;;;;;;0.70;0.50;;;;;;;30.02;50.28;95289.19;5071425;28;20437;-61
2023/06/30 09:36:20;;;;;;;2.13;0.70;;;;;;;30.06;49.91;95282.53;5071266;28;20487;-61
2023/06/30 09:38:57;;;;;;;0.60;0.43;;;;;;;30.82;47.09;95284.59;5071545;28;20959;-59
2023/06/30 09:41:27;;;;;;;0.50;0.50;;;;;;;31.08;45.70;95273.13;5071283;28;20929;-61
2023/06/30 09:43:59;;;;;;;0.70;0.63;;;;;;;31.20;44.67;95272.63;5070812;28;20436;-61
2023/06/30 09:46:28;;;;;;;0.70;0.70;;;;;;;30.61;44.76;95282.72;5071537;28;20429;-61
2023/06/30 09:48:57;;;;;;;0.37;0.30;;;;;;;31.84;43.05;95278.41;5071071;28;20447;-60
2023/06/30 09:51:26;;;;;;;0.77;0.77;;;;;;;31.25;44.67;95269.47;5070359;28;20981;-61
2023/06/30 09:53:55;;;;;;;0.50;0.40;;;;;;;30.84;46.08;95246.63;5044997;28;20524;-60
2023/06/30 09:56:26;;;;;;;0.47;0.47;;;;;;;31.30;44.40;95230.69;5071496;28;20504;-60
2023/06/30 09:58:57;;;;;;;0.57;0.53;;;;;;;29.91;45.13;95274.75;5044915;28;20441;-61
2023/06/30 10:01:25;;;;;;;0.70;0.40;;;;;;;31.30;44.69;95265.53;5071217;28;20486;-60
2023/06/30 10:03:55;;;;;;;0.40;0.37;;;;;;;31.12;47.05;95254.69;5071632;28;20433;-60
2023/06/30 10:06:28;;;;;;;0.40;0.40;;;;;;;31.98;45.49;95261.81;5058057;28;20452;-61
2023/06/30 10:08:58;;;;;;;0.50;0.50;;;;;;;32.81;41.04;95246.75;5073028;28;20569;-60
2023/06/30 10:11:29;;;;;;;0.63;0.63;;;;;;;31.51;41.83;95253.66;5075493;28;20494;-60
2023/06/30 10:13:59;;;;;;;0.73;0.73;;;;;;;31.26;42.34;95249.13;5074895;28;20484;-60
2023/06/30 10:16:30;;;;;;;1.13;0.93;;;;;;;31.19;42.22;95240.97;5075008;28;20488;-59
2023/06/30 10:19:01;;;;;;;0.50;0.40;;;;;;;31.18;43.33;95236.66;5075526;28;20440;-60
2023/06/30 10:21:31;;;;;;;2.27;0.40;;;;;;;32.25;43.40;95229.03;5075401;28;20440;-60
2023/06/30 10:24:01;;;;;;;0.40;0.30;;;;;;;33.17;40.00;95214.03;5074612;28;20457;-60
2023/06/30 10:26:32;;;;;;;0.53;0.53;;;;;;;32.67;39.09;95230.44;5075294;28;21099;-59
2023/06/30 10:29:00;;;;;;;0.40;0.40;;;;;;;33.20;39.68;95227.72;5075075;28;20452;-60
2023/06/30 10:31:29;;;;;;;0.40;0.30;;;;;;;33.47;39.26;95221.41;5075107;28;20444;-60
2023/06/30 10:33:57;;;;;;;0.30;0.30;;;;;;;32.80;41.63;95211.44;5074946;28;20439;-61
2023/06/30 10:36:27;;;;;;;0.50;0.40;;;;;;;32.15;42.59;95186.03;5075401;28;20478;-61
2023/06/30 10:38:56;;;;;;;0.50;0.40;;;;;;;31.86;44.01;95215.72;5075174;28;20440;-61
2023/06/30 10:41:25;;;;;;;0.53;0.30;;;;;;;32.55;39.93;95209.84;5074768;28;20471;-60
2023/06/30 10:44:07;;;;;;;0.30;0.30;;;;;;;32.69;42.09;95188.88;5074258;28;20815;-60
2023/06/30 10:46:46;;;;;;;0.50;0.47;;;;;;;33.25;39.49;95202.53;5074855;28;21029;-61
2023/06/30 10:49:22;;;;;;;0.60;0.50;;;;;;;32.70;40.89;95193.94;5074643;28;20435;-61
2023/06/30 10:51:52;;;;;;;0.50;0.40;;;;;;;33.22;40.04;95191.59;5074432;28;20449;-60
2023/06/30 10:54:26;;;;;;;0.60;0.60;;;;;;;33.08;41.27;95184.38;5074477;28;20501;-61
2023/06/30 10:57:05;;;;;;;0.40;0.33;;;;;;;33.85;40.90;95176.75;5073714;28;20849;-60
2023/06/30 10:59:39;;;;;;;0.40;0.30;;;;;;;33.93;37.67;95179.38;5074573;28;20948;-60
2023/06/30 11:02:15;;;;;;;0.40;0.33;;;;;;;33.44;39.21;95168.06;5074529;28;20433;-60
2023/06/30 11:04:44;;;;;;;1.90;0.50;;;;;;;32.10;42.28;95170.03;5073930;28;20480;-59
2023/06/30 11:07:18;;;;;;;0.57;0.53;;;;;;;32.62;38.68;95168.56;5066163;28;20481;-60
2023/06/30 11:10:02;;;;;;;0.77;0.77;;;;;;;33.30;38.71;95151.81;5069668;28;20456;-60
2023/06/30 11:12:54;;;;;;;0.40;0.30;;;;;;;33.72;38.01;95151.09;5074467;28;20452;-60
2023/06/30 11:15:34;;;;;;;0.40;0.30;;;;;;;34.07;41.39;95155.13;5051583;28;20456;-60
2023/06/30 11:18:05;;;;;;;0.40;0.30;;;;;;;33.82;36.87;95158.34;5073872;28;20504;-60
2023/06/30 11:20:34;;;;;;;0.60;0.60;;;;;;;33.18;37.22;95144.97;5073795;28;20440;-61
2023/06/30 11:23:05;;;;;;;2.83;0.70;;;;;;;33.22;37.24;95147.63;5074250;28;20491;-61
2023/06/30 11:25:35;;;;;;;0.57;0.57;;;;;;;33.70;38.54;95141.72;5073868;28;20445;-60
2023/06/30 11:28:04;;;;;;;0.50;0.30;;;;;;;32.67;35.79;95136.34;5073816;28;20515;-61
2023/06/30 11:30:38;;;;;;;0.50;0.30;;;;;;;33.22;37.87;95137.44;5073835;28;20452;-61
2023/06/30 11:33:08;;;;;;;0.30;0.20;;;;;;;33.22;36.00;95079.75;5049365;28;20848;-62
2023/06/30 11:35:37;;;;;;;0.47;0.40;;;;;;;33.30;35.65;95124.34;5073465;28;20773;-57
2023/06/30 11:38:09;;;;;;;0.63;0.50;;;;;;;33.05;36.34;95124.78;5073558;28;20480;-55
2023/06/30 11:40:46;;;;;;;0.50;0.50;;;;;;;32.75;35.34;95126.81;5073471;28;20980;-56